Time;durP1;ratioP1;P1;durP2;ratioP2;P2;SDS_P1;SDS_P2;PMS_P1;PMS_P2;Temp;Humidity;BMP_temperature;BMP_pressure;BME280_temperature;BME280_humidity;BME280_pressure;Samples;Min_cycle;Max_cycle;Signal;HPM_P1;HPM_P2
2022/06/14 00:00:53;;;;;;;36.87;22.00;;;8.60;99.90;;;;;;4443009;28;658307;-68
2022/06/14 00:02:46;;;;;;;43.27;22.40;;;8.80;99.90;;;;;;4402610;28;657596;-68
2022/06/14 00:05:35;;;;;;;45.03;24.13;;;8.80;99.90;;;;;;4452431;28;657941;-68
2022/06/14 00:08:22;;;;;;;44.30;24.83;;;9.00;99.90;;;;;;4421619;28;658922;-68
2022/06/14 00:11:11;;;;;;;38.73;23.57;;;9.10;99.90;;;;;;4445450;28;657876;-68
2022/06/14 00:13:59;;;;;;;51.37;23.17;;;9.20;99.90;;;;;;4420740;28;658400;-68
2022/06/14 00:16:46;;;;;;;40.30;22.67;;;9.30;99.90;;;;;;4422702;28;657878;-68
2022/06/14 00:19:34;;;;;;;47.80;24.73;;;9.40;99.90;;;;;;4449237;28;658209;-68
2022/06/14 00:22:22;;;;;;;35.93;22.13;;;9.60;99.90;;;;;;4424943;28;657875;-68
2022/06/14 00:25:13;;;;;;;76.97;33.93;;;9.60;99.90;;;;;;4447996;28;657924;-68
2022/06/14 00:28:01;;;;;;;50.93;27.00;;;9.80;99.90;;;;;;4408589;28;658427;-68
2022/06/14 00:30:50;;;;;;;50.80;28.23;;;9.90;99.90;;;;;;4442479;28;658766;-68
2022/06/14 00:33:37;;;;;;;48.60;26.13;;;10.10;99.90;;;;;;4420836;28;658576;-68
2022/06/14 00:36:28;;;;;;;70.37;31.33;;;10.00;99.90;;;;;;4434906;28;658448;-68
2022/06/14 00:39:17;;;;;;;50.20;24.63;;;10.10;99.90;;;;;;4428668;28;658612;-69
2022/06/14 00:42:04;;;;;;;100.87;43.73;;;10.20;99.90;;;;;;4443247;28;658931;-68
2022/06/14 00:45:02;;;;;;;95.23;40.17;;;10.60;99.90;;;;;;4421618;28;659393;-68
2022/06/14 00:47:51;;;;;;;389.33;84.67;;;10.70;99.90;;;;;;4415996;28;658956;-69
2022/06/14 00:50:40;;;;;;;413.30;78.13;;;11.00;99.90;;;;;;4416103;28;660394;-69
2022/06/14 00:53:29;;;;;;;835.60;101.87;;;11.10;99.90;;;;;;4413485;28;660552;-69
2022/06/14 00:56:19;;;;;;;675.07;95.40;;;11.20;99.90;;;;;;4417377;28;661973;-69
2022/06/14 00:59:09;;;;;;;813.90;95.53;;;11.30;99.90;;;;;;4422004;28;660327;-69
2022/06/14 01:01:59;;;;;;;1071.37;96.97;;;11.30;99.90;;;;;;4418263;28;659606;-69
2022/06/14 01:04:46;;;;;;;929.27;89.50;;;11.40;99.90;;;;;;4418401;28;661017;-69
2022/06/14 01:07:36;;;;;;;1009.97;89.77;;;11.50;99.90;;;;;;4438294;28;660738;-69
2022/06/14 01:10:25;;;;;;;978.53;80.40;;;11.40;99.90;;;;;;4411804;28;661661;-69
2022/06/14 01:13:16;;;;;;;784.33;64.07;;;11.50;99.90;;;;;;4415349;28;660397;-69
2022/06/14 01:16:03;;;;;;;594.57;46.27;;;11.50;99.90;;;;;;4414649;28;660167;-69
2022/06/14 01:18:50;;;;;;;509.30;41.50;;;11.40;99.90;;;;;;4417588;28;659764;-69
2022/06/14 01:21:37;;;;;;;508.42;46.47;;;11.40;99.90;;;;;;4445392;28;659429;-69
2022/06/14 01:24:26;;;;;;;633.17;48.27;;;11.50;99.90;;;;;;4444714;28;660740;-69
2022/06/14 01:27:14;;;;;;;370.83;36.57;;;11.50;99.90;;;;;;4419025;28;660264;-69
2022/06/14 01:30:11;;;;;;;503.80;38.78;;;11.40;99.90;;;;;;4421888;28;660260;-69
2022/06/14 01:32:59;;;;;;;393.67;34.73;;;11.40;99.90;;;;;;4418988;28;659881;-69
2022/06/14 01:35:49;;;;;;;279.30;34.42;;;11.40;99.90;;;;;;4418155;28;660349;-69
2022/06/14 01:38:36;;;;;;;449.90;42.73;;;11.40;99.90;;;;;;4414872;28;659820;-69
2022/06/14 01:41:30;;;;;;;298.07;39.77;;;11.40;99.90;;;;;;4444025;28;660191;-69
2022/06/14 01:44:24;;;;;;;208.43;38.00;;;11.40;99.90;;;;;;4397112;28;660020;-69
2022/06/14 01:47:18;;;;;;;139.37;37.23;;;11.40;99.90;;;;;;4419644;28;659794;-69
2022/06/14 01:53:22;;;;;;;89.77;36.30;;;11.40;99.90;;;;;;4416437;28;660060;-69
2022/06/14 01:56:11;;;;;;;81.73;35.40;;;11.40;99.90;;;;;;4422560;28;659192;-69
2022/06/14 01:59:03;;;;;;;93.27;36.77;;;11.30;99.90;;;;;;4415009;28;659890;-69
2022/06/14 02:01:57;;;;;;;84.97;36.63;;;11.30;99.90;;;;;;4392921;28;659360;-69
2022/06/14 02:04:46;;;;;;;82.10;33.77;;;11.30;99.90;;;;;;4438905;28;658399;-69
2022/06/14 02:07:38;;;;;;;82.17;34.97;;;11.30;99.90;;;;;;4418410;28;659796;-69
2022/06/14 02:10:26;;;;;;;87.20;36.00;;;11.30;99.90;;;;;;4408973;28;659079;-69
2022/06/14 02:13:17;;;;;;;82.83;34.77;;;11.30;99.90;;;;;;4445284;28;659292;-70
2022/06/14 02:16:08;;;;;;;92.57;36.97;;;11.30;99.90;;;;;;4442613;28;659012;-69
2022/06/14 02:18:59;;;;;;;83.93;35.17;;;11.20;99.90;;;;;;4419673;28;658317;-69
2022/06/14 02:21:47;;;;;;;81.33;33.93;;;11.20;99.90;;;;;;4427382;28;658965;-69
2022/06/14 02:24:37;;;;;;;75.57;32.57;;;11.20;99.90;;;;;;4448601;28;659132;-69
2022/06/14 02:27:26;;;;;;;72.60;32.90;;;11.10;99.90;;;;;;4423619;28;659354;-69
2022/06/14 02:30:15;;;;;;;83.07;32.63;;;11.10;99.90;;;;;;4421033;28;659065;-70
2022/06/14 02:33:06;;;;;;;73.53;31.93;;;11.00;99.90;;;;;;4427821;28;659713;-69
2022/06/14 02:35:57;;;;;;;73.77;32.43;;;11.00;99.90;;;;;;4422638;28;659823;-69
2022/06/14 02:38:45;;;;;;;91.23;34.80;;;11.00;99.90;;;;;;4427254;28;658398;-69
2022/06/14 02:41:36;;;;;;;88.53;35.50;;;11.00;99.90;;;;;;4428730;28;659490;-70
2022/06/14 02:44:24;;;;;;;84.03;34.23;;;11.00;99.90;;;;;;4426135;28;660196;-69
2022/06/14 02:47:16;;;;;;;85.97;34.97;;;11.00;99.90;;;;;;4428651;28;659717;-69
2022/06/14 02:50:09;;;;;;;80.93;35.63;;;11.00;99.90;;;;;;4430811;28;659204;-69
2022/06/14 02:53:00;;;;;;;78.27;34.50;;;11.10;99.90;;;;;;4407402;28;659305;-69
2022/06/14 02:55:48;;;;;;;97.20;35.27;;;11.00;99.90;;;;;;4414912;28;659718;-69
2022/06/14 02:58:39;;;;;;;127.17;37.37;;;11.00;99.90;;;;;;4423713;28;658253;-69
2022/06/14 03:01:29;;;;;;;102.68;37.65;;;10.90;99.90;;;;;;4430904;28;659817;-69
2022/06/14 03:04:18;;;;;;;74.57;31.93;;;10.90;99.90;;;;;;4422350;28;660092;-69
2022/06/14 03:07:08;;;;;;;78.77;34.57;;;10.90;99.90;;;;;;4426758;28;658474;-69
2022/06/14 03:09:55;;;;;;;93.60;35.27;;;11.00;99.90;;;;;;4425910;28;658469;-69
2022/06/14 03:12:44;;;;;;;85.37;34.33;;;11.00;99.90;;;;;;4442144;28;657825;-69
2022/06/14 03:15:35;;;;;;;79.63;32.90;;;11.00;99.90;;;;;;4424137;28;658690;-69
2022/06/14 03:18:26;;;;;;;73.43;31.73;;;10.90;99.90;;;;;;4421189;28;659367;-69
2022/06/14 03:21:16;;;;;;;69.90;28.50;;;10.90;99.90;;;;;;4414509;28;659426;-69
2022/06/14 03:24:08;;;;;;;65.30;30.50;;;10.90;99.90;;;;;;4415468;28;658815;-69
2022/06/14 03:26:59;;;;;;;75.17;32.00;;;10.90;99.90;;;;;;4394720;28;659613;-69
2022/06/14 03:29:49;;;;;;;69.33;33.20;;;11.00;99.90;;;;;;4422010;28;658332;-69
2022/06/14 03:32:41;;;;;;;77.60;31.48;;;10.90;99.90;;;;;;4415818;28;658808;-69
2022/06/14 03:35:30;;;;;;;68.80;31.90;;;10.90;99.90;;;;;;4425489;28;659542;-69
2022/06/14 03:38:20;;;;;;;72.93;31.27;;;10.90;99.90;;;;;;4420781;28;659863;-69
2022/06/14 03:41:09;;;;;;;71.97;31.50;;;10.90;99.90;;;;;;4424566;28;659927;-69
2022/06/14 03:43:57;;;;;;;70.07;31.47;;;11.00;99.90;;;;;;4421506;28;659351;-69
2022/06/14 03:46:48;;;;;;;64.27;29.13;;;11.00;99.90;;;;;;4444887;28;658168;-69
2022/06/14 03:49:36;;;;;;;56.30;27.30;;;11.10;99.90;;;;;;4394313;28;659007;-69
2022/06/14 03:52:35;;;;;;;56.87;27.83;;;11.00;99.90;;;;;;4441273;28;658514;-69
2022/06/14 03:55:34;;;;;;;63.03;29.07;;;10.90;99.90;;;;;;4396031;28;659084;-69
2022/06/14 03:58:33;;;;;;;58.20;28.90;;;10.80;99.90;;;;;;4416246;28;658992;-69
2022/06/14 04:01:21;;;;;;;53.20;25.57;;;10.80;99.90;;;;;;4403874;28;659387;-69
2022/06/14 04:04:17;;;;;;;51.43;26.63;;;10.80;99.90;;;;;;4438389;28;659197;-69
2022/06/14 04:07:11;;;;;;;51.30;26.03;;;10.90;99.90;;;;;;4415279;28;658399;-69
2022/06/14 04:10:03;;;;;;;51.73;25.73;;;10.80;99.90;;;;;;4420360;28;658614;-69
2022/06/14 04:12:56;;;;;;;52.10;25.60;;;10.90;99.90;;;;;;4398470;28;658988;-69
2022/06/14 04:15:47;;;;;;;49.77;26.17;;;10.90;99.90;;;;;;4417121;28;659618;-69
2022/06/14 04:18:39;;;;;;;53.67;26.37;;;11.00;99.90;;;;;;4416018;28;658850;-69
2022/06/14 04:21:33;;;;;;;47.60;24.27;;;11.00;99.90;;;;;;4422445;28;659529;-69
2022/06/14 04:24:22;;;;;;;53.97;26.13;;;11.10;99.90;;;;;;4404770;28;658965;-69
2022/06/14 04:27:11;;;;;;;52.03;25.60;;;11.30;99.90;;;;;;4442093;28;659303;-70
2022/06/14 04:30:00;;;;;;;51.53;26.10;;;11.40;99.90;;;;;;4421496;28;659787;-69
2022/06/14 04:32:53;;;;;;;44.57;24.00;;;11.40;99.90;;;;;;4414813;28;659609;-69
2022/06/14 04:35:43;;;;;;;38.90;20.77;;;11.40;99.90;;;;;;4396957;28;659435;-69
2022/06/14 04:38:31;;;;;;;36.17;20.17;;;11.50;99.90;;;;;;4421211;28;659194;-69
2022/06/14 04:41:20;;;;;;;33.93;18.20;;;11.70;99.90;;;;;;4440728;28;659587;-69
2022/06/14 04:44:09;;;;;;;32.30;19.80;;;11.70;99.90;;;;;;4422326;28;659009;-69
2022/06/14 04:46:58;;;;;;;30.53;17.33;;;11.70;99.90;;;;;;4416708;28;658876;-69
2022/06/14 04:49:49;;;;;;;32.97;18.60;;;11.70;99.90;;;;;;4418693;28;658789;-69
2022/06/14 04:52:38;;;;;;;32.90;18.97;;;11.80;99.90;;;;;;4417431;28;659467;-69
2022/06/14 04:55:28;;;;;;;34.43;18.80;;;11.90;99.90;;;;;;4422912;28;660091;-69
2022/06/14 04:58:17;;;;;;;32.33;17.43;;;11.80;99.90;;;;;;4421565;28;658700;-69
2022/06/14 05:01:07;;;;;;;31.83;16.75;;;11.80;99.90;;;;;;4440848;28;658509;-69
2022/06/14 05:03:56;;;;;;;29.53;16.93;;;11.80;99.90;;;;;;4419320;28;659424;-69
2022/06/14 05:06:46;;;;;;;25.70;13.80;;;11.90;99.90;;;;;;4415214;28;660038;-69
2022/06/14 05:09:35;;;;;;;21.60;12.40;;;12.00;99.90;;;;;;4414880;28;659680;-69
2022/06/14 05:12:24;;;;;;;21.67;11.30;;;12.00;99.90;;;;;;4418053;28;660353;-69
2022/06/14 05:15:13;;;;;;;21.33;11.13;;;11.90;99.90;;;;;;4424361;28;659084;-68
2022/06/14 05:18:02;;;;;;;15.48;9.23;;;12.00;99.90;;;;;;4421024;28;658846;-69
2022/06/14 05:20:51;;;;;;;18.60;9.33;;;12.00;99.90;;;;;;4442026;28;657333;-69
2022/06/14 05:23:43;;;;;;;15.67;9.03;;;12.00;99.90;;;;;;4418241;28;658094;-68
2022/06/14 05:26:37;;;;;;;14.57;8.57;;;12.00;99.90;;;;;;4399099;28;658013;-68
2022/06/14 05:29:27;;;;;;;20.43;9.23;;;12.00;99.90;;;;;;4415166;28;657749;-68
2022/06/14 05:32:18;;;;;;;18.43;10.17;;;11.90;99.90;;;;;;4443642;28;656743;-68
2022/06/14 05:35:17;;;;;;;19.73;9.80;;;12.00;99.90;;;;;;4401882;28;658653;-68
2022/06/14 05:38:15;;;;;;;25.13;10.70;;;12.10;99.90;;;;;;4438048;28;657706;-68
2022/06/14 05:41:06;;;;;;;17.23;9.90;;;12.20;99.90;;;;;;4421693;28;659168;-68
2022/06/14 05:43:55;;;;;;;19.03;9.73;;;12.20;99.90;;;;;;4414438;28;658741;-68
2022/06/14 05:46:44;;;;;;;21.00;9.80;;;12.30;99.90;;;;;;4422489;28;658369;-68
2022/06/14 05:49:33;;;;;;;20.13;9.60;;;12.40;99.90;;;;;;4421303;28;657921;-68
2022/06/14 05:52:22;;;;;;;18.50;7.67;;;12.50;99.90;;;;;;4418264;28;657180;-68
2022/06/14 05:55:10;;;;;;;16.20;7.23;;;12.60;99.90;;;;;;4444910;28;658406;-68
2022/06/14 05:58:01;;;;;;;15.43;7.77;;;12.70;99.90;;;;;;4416019;28;659038;-68
2022/06/14 06:00:50;;;;;;;16.63;8.37;;;12.60;99.90;;;;;;4414816;28;657849;-68
2022/06/14 06:03:40;;;;;;;13.77;6.80;;;12.80;99.90;;;;;;4424794;28;657785;-68
2022/06/14 06:06:30;;;;;;;20.03;8.03;;;13.10;99.90;;;;;;4424501;28;658239;-68
2022/06/14 06:09:19;;;;;;;17.17;8.77;;;13.10;99.90;;;;;;4427725;28;658556;-67
2022/06/14 06:12:09;;;;;;;14.43;5.03;;;13.20;99.90;;;;;;4421807;28;657777;-68
2022/06/14 06:15:05;;;;;;;12.02;4.55;;;13.20;99.90;;;;;;4426613;28;657870;-67
2022/06/14 06:17:53;;;;;;;12.23;4.87;;;13.10;99.90;;;;;;4394808;28;658598;-67
2022/06/14 06:20:44;;;;;;;9.67;4.40;;;13.00;99.90;;;;;;4423136;28;657597;-67
2022/06/14 06:23:32;;;;;;;15.47;4.73;;;13.10;99.90;;;;;;4423752;28;657181;-67
2022/06/14 06:26:20;;;;;;;11.63;5.33;;;13.20;99.90;;;;;;4441580;28;658062;-67
2022/06/14 06:29:10;;;;;;;16.13;5.30;;;13.20;99.90;;;;;;4427922;28;658564;-67
2022/06/14 06:31:59;;;;;;;12.50;5.33;;;13.20;99.90;;;;;;4428729;28;657775;-67
2022/06/14 06:34:46;;;;;;;11.27;5.50;;;13.00;99.90;;;;;;4417583;28;657732;-67
2022/06/14 06:37:36;;;;;;;12.50;4.80;;;13.10;99.90;;;;;;4443414;28;658505;-67
2022/06/14 06:40:24;;;;;;;13.87;4.70;;;13.40;99.90;;;;;;4424176;28;658146;-67
2022/06/14 06:43:12;;;;;;;8.77;4.87;;;13.70;99.90;;;;;;4423412;28;657816;-67
2022/06/14 06:45:59;;;;;;;9.80;4.50;;;13.80;99.90;;;;;;4436557;28;656910;-67
2022/06/14 06:48:51;;;;;;;11.33;4.80;;;13.80;99.90;;;;;;4400356;28;657533;-67
2022/06/14 06:51:41;;;;;;;10.03;4.73;;;13.20;99.90;;;;;;4415658;28;658039;-67
2022/06/14 06:54:32;;;;;;;12.77;4.97;;;13.30;99.90;;;;;;4423961;28;658234;-68
2022/06/14 06:57:20;;;;;;;9.70;3.80;;;13.90;99.90;;;;;;4427727;28;658167;-68
2022/06/14 07:00:08;;;;;;;8.03;4.37;;;14.30;99.90;;;;;;4426143;28;657409;-68
2022/06/14 07:02:57;;;;;;;7.43;3.47;;;14.60;99.90;;;;;;4427836;28;658038;-67
2022/06/14 07:05:47;;;;;;;6.10;3.60;;;15.00;99.90;;;;;;4445796;28;656946;-67
2022/06/14 07:08:41;;;;;;;9.90;5.93;;;15.40;99.90;;;;;;4419235;28;656800;-67
2022/06/14 07:11:30;;;;;;;9.27;5.33;;;15.10;99.90;;;;;;4419349;28;656369;-67
2022/06/14 07:14:21;;;;;;;18.53;7.43;;;14.00;99.90;;;;;;4422701;28;657429;-67
2022/06/14 07:17:12;;;;;;;17.23;7.23;;;13.40;99.90;;;;;;4415015;28;658760;-68
2022/06/14 07:20:01;;;;;;;16.57;6.60;;;13.50;99.90;;;;;;4421008;28;657804;-67
2022/06/14 07:22:51;;;;;;;12.50;6.00;;;13.60;99.90;;;;;;4425035;28;658240;-67
2022/06/14 07:25:42;;;;;;;7.77;5.07;;;14.10;99.90;;;;;;4419399;28;658969;-68
2022/06/14 07:28:32;;;;;;;14.83;6.50;;;14.40;99.90;;;;;;4416870;28;656893;-67
2022/06/14 07:31:24;;;;;;;11.40;4.60;;;15.00;99.90;;;;;;4413171;28;658326;-68
2022/06/14 07:34:11;;;;;;;9.60;4.80;;;15.50;99.90;;;;;;4398842;28;657934;-67
2022/06/14 07:37:02;;;;;;;6.97;3.60;;;15.10;99.90;;;;;;4446125;28;657400;-67
2022/06/14 07:39:53;;;;;;;14.40;4.70;;;15.30;99.90;;;;;;4429734;28;657048;-67
2022/06/14 07:42:42;;;;;;;7.40;4.00;;;15.00;99.90;;;;;;4404535;28;657757;-68
2022/06/14 07:45:32;;;;;;;13.00;4.00;;;15.30;99.90;;;;;;4448730;28;656470;-67
2022/06/14 07:48:23;;;;;;;8.00;3.70;;;14.90;99.90;;;;;;4437399;28;657431;-67
2022/06/14 07:51:12;;;;;;;8.83;3.67;;;15.60;99.90;;;;;;4422606;28;656544;-68
2022/06/14 07:54:01;;;;;;;8.70;4.17;;;15.90;99.90;;;;;;4443295;28;657351;-67
2022/06/14 07:56:53;;;;;;;9.23;4.67;;;14.90;99.90;;;;;;4425566;28;656833;-67
2022/06/14 07:59:42;;;;;;;8.97;4.47;;;14.50;99.90;;;;;;4406408;28;657320;-67
2022/06/14 08:02:32;;;;;;;7.07;3.80;;;14.20;99.90;;;;;;4449325;28;656014;-67
2022/06/14 08:05:21;;;;;;;7.97;3.40;;;14.10;99.90;;;;;;4421885;28;656469;-67
2022/06/14 08:08:09;;;;;;;5.93;3.50;;;13.90;99.90;;;;;;4420241;28;656966;-67
2022/06/14 08:10:57;;;;;;;10.53;4.00;;;13.90;99.90;;;;;;4427387;28;656831;-67
2022/06/14 08:13:50;;;;;;;12.50;3.37;;;14.10;99.90;;;;;;4445297;28;657416;-67
2022/06/14 08:16:37;;;;;;;5.60;3.13;;;14.30;99.90;;;;;;4416979;28;658368;-67
2022/06/14 08:19:25;;;;;;;7.37;3.73;;;14.50;99.90;;;;;;4447088;28;657468;-67
2022/06/14 08:22:15;;;;;;;8.73;3.53;;;14.50;99.90;;;;;;4426525;28;657900;-67
2022/06/14 08:25:04;;;;;;;7.23;3.37;;;14.20;99.90;;;;;;4431444;28;657463;-67
2022/06/14 08:27:52;;;;;;;12.13;4.07;;;14.20;99.90;;;;;;4422168;28;656940;-67
2022/06/14 08:30:42;;;;;;;9.73;3.40;;;14.30;99.90;;;;;;4443083;28;656966;-67
2022/06/14 08:33:31;;;;;;;7.70;3.13;;;14.40;99.90;;;;;;4421384;28;656838;-67
2022/06/14 08:36:21;;;;;;;7.10;3.30;;;14.50;99.90;;;;;;4425588;28;657162;-67
2022/06/14 08:39:09;;;;;;;8.17;3.07;;;14.60;99.90;;;;;;4419966;28;656602;-67
2022/06/14 08:42:01;;;;;;;6.67;2.93;;;14.40;99.90;;;;;;4421660;28;657460;-67
2022/06/14 08:44:51;;;;;;;6.88;3.03;;;14.90;99.90;;;;;;4412470;28;659174;-67
2022/06/14 08:47:53;;;;;;;6.20;3.00;;;15.60;99.90;;;;;;4419485;28;657442;-67
2022/06/14 08:50:57;;;;;;;7.00;2.90;;;16.00;99.90;;;;;;4402787;28;656879;-67
2022/06/14 08:54:35;;;;;;;7.17;2.43;;;16.00;99.90;;;;;;4410071;28;657254;-67
2022/06/14 08:57:35;;;;;;;6.90;2.60;;;16.20;99.90;;;;;;4404700;28;656969;-67
2022/06/14 09:00:36;;;;;;;7.00;2.30;;;16.60;99.90;;;;;;4419694;28;656880;-67
2022/06/14 09:03:50;;;;;;;3.23;2.00;;;16.60;99.90;;;;;;4419526;28;656656;-67
2022/06/14 09:07:11;;;;;;;5.40;2.07;;;17.00;99.90;;;;;;4413898;28;656680;-67
2022/06/14 09:10:03;;;;;;;6.53;1.87;;;16.80;99.90;;;;;;4418937;28;656705;-67
2022/06/14 09:13:13;;;;;;;6.97;1.83;;;16.40;95.70;;;;;;4398501;28;657073;-67
2022/06/14 09:16:21;;;;;;;5.47;1.80;;;15.90;99.90;;;;;;4411766;28;657249;-67
2022/06/14 09:19:19;;;;;;;5.23;1.50;;;15.80;99.90;;;;;;4414576;28;656810;-67
2022/06/14 09:22:09;;;;;;;3.77;1.33;;;15.80;99.90;;;;;;4425520;28;656388;-67
2022/06/14 09:24:57;;;;;;;5.60;1.50;;;15.90;99.90;;;;;;4423598;28;656949;-66
2022/06/14 09:28:15;;;;;;;5.10;1.63;;;15.40;99.90;;;;;;4449889;28;655823;-67
2022/06/14 09:31:13;;;;;;;4.50;1.40;;;15.60;99.90;;;;;;4401361;28;656951;-67
2022/06/14 09:34:28;;;;;;;4.80;1.50;;;15.80;99.90;;;;;;4398511;28;656931;-67
2022/06/14 09:37:43;;;;;;;2.73;1.40;;;15.60;99.90;;;;;;4403721;28;656547;-67
2022/06/14 09:40:40;;;;;;;3.00;1.30;;;15.50;99.90;;;;;;4397416;28;656580;-68
2022/06/14 09:43:58;;;;;;;4.57;1.40;;;15.60;99.90;;;;;;4422118;28;656873;-68
2022/06/14 09:47:11;;;;;;;2.50;0.90;;;15.60;98.30;;;;;;4395093;28;657824;-67
2022/06/14 09:50:25;;;;;;;2.42;1.00;;;15.50;97.40;;;;;;4421003;28;656740;-67
2022/06/14 09:53:27;;;;;;;2.40;1.20;;;15.70;98.80;;;;;;4399930;28;656734;-66
2022/06/14 09:56:44;;;;;;;6.60;1.20;;;15.70;99.90;;;;;;4412423;28;657769;-66
2022/06/14 09:59:50;;;;;;;2.17;1.20;;;15.60;97.80;;;;;;4393714;28;656640;-67
2022/06/14 10:02:50;;;;;;;5.03;0.87;;;15.90;99.90;;;;;;4418650;28;656555;-67
2022/06/14 10:05:47;;;;;;;3.63;1.33;;;15.70;99.80;;;;;;4402734;28;657522;-66
2022/06/14 10:08:42;;;;;;;6.57;1.33;;;15.90;99.80;;;;;;4420067;28;656376;-67
2022/06/14 10:11:37;;;;;;;2.43;1.10;;;15.90;99.40;;;;;;4432519;28;656413;-66
2022/06/14 10:14:35;;;;;;;3.93;1.10;;;15.90;98.30;;;;;;4415859;28;656619;-66
2022/06/14 10:17:33;;;;;;;6.73;1.00;;;15.90;99.40;;;;;;4398751;28;656646;-66
2022/06/14 10:20:36;;;;;;;8.17;1.30;;;15.60;97.20;;;;;;4408643;28;656421;-67
2022/06/14 10:23:46;;;;;;;3.77;1.30;;;15.60;97.60;;;;;;4420551;28;656967;-67
2022/06/14 10:30:11;;;;;;;6.90;1.10;;;15.60;94.90;;;;;;4392609;28;656976;-67
2022/06/14 10:33:23;;;;;;;3.47;1.37;;;15.80;97.90;;;;;;4420728;28;656796;-67
2022/06/14 10:36:18;;;;;;;10.37;1.60;;;16.00;97.20;;;;;;4402878;28;656752;-67
2022/06/14 10:39:25;;;;;;;5.63;1.30;;;16.40;99.90;;;;;;4399662;28;657810;-66
2022/06/14 10:42:14;;;;;;;5.20;1.40;;;16.60;99.70;;;;;;4396511;28;657019;-66
2022/06/14 10:45:08;;;;;;;6.33;1.37;;;16.50;93.10;;;;;;4421098;28;657104;-66
2022/06/14 10:48:17;;;;;;;5.23;1.27;;;16.50;92.70;;;;;;4416730;28;656303;-66
2022/06/14 10:51:16;;;;;;;4.13;1.30;;;16.20;91.20;;;;;;4416581;28;657349;-67
2022/06/14 10:54:07;;;;;;;2.97;1.10;;;16.50;90.70;;;;;;4424715;28;657103;-66
2022/06/14 10:57:09;;;;;;;3.87;1.20;;;16.70;89.70;;;;;;4407639;28;656984;-66
2022/06/14 11:00:14;;;;;;;5.93;1.30;;;17.30;92.20;;;;;;4422684;28;657351;-66
2022/06/14 11:03:24;;;;;;;7.83;1.70;;;17.80;93.10;;;;;;4381964;28;657046;-67
2022/06/14 11:06:22;;;;;;;3.93;1.43;;;17.30;85.70;;;;;;4410125;28;657538;-67
2022/06/14 11:09:15;;;;;;;5.27;1.40;;;18.10;88.00;;;;;;4399158;28;656927;-66
2022/06/14 11:12:22;;;;;;;3.33;1.20;;;17.80;80.80;;;;;;4410923;28;656666;-66
2022/06/14 11:15:13;;;;;;;4.20;1.37;;;17.10;81.40;;;;;;4426234;28;656458;-67
2022/06/14 11:18:25;;;;;;;2.07;1.07;;;18.20;83.50;;;;;;4389039;28;656424;-66
2022/06/14 11:21:22;;;;;;;4.67;1.40;;;18.10;81.30;;;;;;4406964;28;656716;-67
2022/06/14 11:24:13;;;;;;;4.27;1.37;;;18.00;77.60;;;;;;4419607;28;657369;-66
2022/06/14 11:27:04;;;;;;;4.33;1.37;;;17.90;80.40;;;;;;4413239;28;656519;-66
2022/06/14 11:29:58;;;;;;;11.63;1.10;;;18.30;86.80;;;;;;4398598;28;657128;-66
2022/06/14 11:32:50;;;;;;;9.00;1.43;;;18.10;78.20;;;;;;4393948;28;657438;-66
2022/06/14 11:35:47;;;;;;;5.00;1.30;;;17.20;79.40;;;;;;4400720;28;657867;-66
2022/06/14 11:38:54;;;;;;;5.20;1.37;;;17.60;85.30;;;;;;4392118;28;656686;-66
2022/06/14 11:41:44;;;;;;;4.90;1.20;;;18.00;80.60;;;;;;4401457;28;656474;-66
2022/06/14 11:44:40;;;;;;;3.43;1.20;;;18.10;74.10;;;;;;4405085;28;656968;-67
2022/06/14 11:47:30;;;;;;;4.87;1.30;;;17.90;74.30;;;;;;4377414;28;657213;-70
2022/06/14 11:50:21;;;;;;;4.27;1.20;;;18.10;75.80;;;;;;4390789;28;657235;-66
2022/06/14 11:53:35;;;;;;;3.33;1.10;;;18.20;74.70;;;;;;4406187;28;657376;-66
2022/06/14 11:56:27;;;;;;;5.57;1.20;;;18.60;75.10;;;;;;4410056;28;656803;-67
2022/06/14 11:59:32;;;;;;;11.13;1.50;;;19.00;71.00;;;;;;4407026;28;657014;-66
2022/06/14 12:02:33;;;;;;;2.73;0.90;;;18.50;69.90;;;;;;4407403;28;657861;-66
2022/06/14 12:05:39;;;;;;;1.13;0.60;;;18.30;70.30;;;;;;4389361;28;656885;-66
2022/06/14 12:08:36;;;;;;;8.97;1.20;;;17.90;69.00;;;;;;4411743;28;656553;-66
2022/06/14 12:11:25;;;;;;;3.37;1.17;;;17.90;71.90;;;;;;4406935;28;656802;-66
2022/06/14 12:14:31;;;;;;;6.87;1.10;;;17.60;69.70;;;;;;4408157;28;657983;-66
2022/06/14 12:17:22;;;;;;;5.10;1.13;;;17.70;67.50;;;;;;4411756;28;657033;-66
2022/06/14 12:20:12;;;;;;;4.77;0.80;;;18.10;67.50;;;;;;4408205;28;656925;-66
2022/06/14 12:23:02;;;;;;;3.90;1.10;;;18.40;64.90;;;;;;4407805;28;657030;-66
2022/06/14 12:28:59;;;;;;;2.70;0.90;;;18.80;66.40;;;;;;4393747;28;656762;-66
2022/06/14 12:31:51;;;;;;;1.97;1.10;;;18.80;67.10;;;;;;4394254;28;656300;-66
2022/06/14 12:34:42;;;;;;;8.13;1.10;;;18.40;68.20;;;;;;4409993;28;657620;-66
2022/06/14 12:37:32;;;;;;;3.40;0.93;;;18.60;71.50;;;;;;4411744;28;656338;-66
2022/06/14 12:40:23;;;;;;;9.13;1.30;;;19.10;71.80;;;;;;4407675;28;656791;-66
2022/06/14 12:43:12;;;;;;;3.63;1.27;;;19.10;73.00;;;;;;4395522;28;657134;-66
2022/06/14 12:46:01;;;;;;;3.63;1.10;;;19.50;68.80;;;;;;4433316;28;655834;-66
2022/06/14 12:48:51;;;;;;;4.87;1.10;;;19.00;67.60;;;;;;4404245;28;657159;-66
2022/06/14 12:51:42;;;;;;;9.03;1.10;;;18.80;69.40;;;;;;4387092;28;656975;-66
2022/06/14 12:54:38;;;;;;;1.93;0.90;;;18.70;73.20;;;;;;4386314;28;656965;-66
2022/06/14 12:57:33;;;;;;;5.00;1.03;;;18.60;69.10;;;;;;4384681;28;656222;-66
2022/06/14 13:00:24;;;;;;;2.90;0.83;;;18.60;65.10;;;;;;4384699;28;656720;-66
2022/06/14 13:03:16;;;;;;;2.13;0.80;;;18.70;65.20;;;;;;4400422;28;656766;-66
2022/06/14 13:06:09;;;;;;;1.87;0.80;;;19.00;65.30;;;;;;4402891;28;657099;-66
2022/06/14 13:08:58;;;;;;;4.30;0.80;;;19.20;59.80;;;;;;4410008;28;656400;-66
2022/06/14 13:11:50;;;;;;;3.80;0.93;;;19.70;62.20;;;;;;4412926;28;656357;-66
2022/06/14 13:14:40;;;;;;;5.73;0.87;;;20.10;60.50;;;;;;4399974;28;658076;-66
2022/06/14 13:17:38;;;;;;;6.03;0.77;;;19.80;57.50;;;;;;4398206;28;656569;-67
2022/06/14 13:20:29;;;;;;;2.43;0.80;;;20.80;62.90;;;;;;4385022;28;656799;-66
2022/06/14 13:23:23;;;;;;;4.27;0.80;;;20.40;60.90;;;;;;4409467;28;657237;-66
2022/06/14 13:26:23;;;;;;;5.13;1.10;;;19.40;59.50;;;;;;4388633;28;656504;-66
2022/06/14 13:29:23;;;;;;;2.87;1.00;;;18.60;61.00;;;;;;4396289;28;657515;-66
2022/06/14 13:32:39;;;;;;;2.87;0.80;;;19.00;64.90;;;;;;4392837;28;656640;-66
2022/06/14 13:35:40;;;;;;;2.73;0.70;;;19.40;59.80;;;;;;4403272;28;656927;-66
2022/06/14 13:38:31;;;;;;;2.37;0.87;;;19.60;60.10;;;;;;4380268;28;656849;-66
2022/06/14 13:41:19;;;;;;;3.97;1.00;;;19.60;59.30;;;;;;4399391;28;656951;-66
2022/06/14 13:44:09;;;;;;;3.90;0.80;;;19.80;63.00;;;;;;4410953;28;656799;-66
2022/06/14 13:47:01;;;;;;;3.13;0.83;;;20.30;59.90;;;;;;4402284;28;656734;-67
2022/06/14 13:49:50;;;;;;;2.53;0.80;;;20.80;64.30;;;;;;4403958;28;657410;-66
2022/06/14 13:52:40;;;;;;;2.50;0.90;;;18.90;59.50;;;;;;4397784;28;657466;-66
2022/06/14 13:55:29;;;;;;;3.57;0.77;;;18.20;60.60;;;;;;4389740;28;657266;-66
2022/06/14 13:58:18;;;;;;;4.50;1.03;;;17.90;62.80;;;;;;4399784;28;656231;-65
2022/06/14 14:01:07;;;;;;;5.90;1.00;;;17.90;63.20;;;;;;4398858;28;656258;-66
2022/06/14 14:03:58;;;;;;;2.87;1.03;;;19.20;68.50;;;;;;4408935;28;656718;-66
2022/06/14 14:06:48;;;;;;;3.17;0.80;;;20.10;64.50;;;;;;4370177;28;656707;-66
2022/06/14 14:09:39;;;;;;;3.53;0.87;;;19.80;62.30;;;;;;4400449;28;656953;-66
2022/06/14 14:12:29;;;;;;;2.27;0.90;;;20.00;62.50;;;;;;4398736;28;656642;-66
2022/06/14 14:15:21;;;;;;;4.40;1.30;;;19.40;61.40;;;;;;4393569;28;656924;-66
2022/06/14 14:18:14;;;;;;;3.40;1.20;;;19.80;62.10;;;;;;4391916;28;656850;-66
2022/06/14 14:21:04;;;;;;;5.00;0.80;;;20.10;65.50;;;;;;4402154;28;656548;-66
2022/06/14 14:24:16;;;;;;;5.50;1.10;;;19.70;62.20;;;;;;4402967;28;656396;-66
2022/06/14 14:27:06;;;;;;;4.73;1.23;;;20.30;60.70;;;;;;4399367;28;657443;-66
2022/06/14 14:29:55;;;;;;;5.57;1.00;;;20.20;60.70;;;;;;4401522;28;657243;-66
2022/06/14 14:32:45;;;;;;;4.47;1.07;;;20.00;59.90;;;;;;4394957;28;657017;-66
2022/06/14 14:35:34;;;;;;;3.10;0.90;;;20.00;62.80;;;;;;4394382;28;656768;-66
2022/06/14 14:38:25;;;;;;;4.73;1.13;;;20.80;62.00;;;;;;4400042;28;656962;-66
2022/06/14 14:44:27;;;;;;;2.07;1.10;;;20.60;58.90;;;;;;4392735;28;656909;-66
2022/06/14 14:47:16;;;;;;;3.83;1.10;;;20.50;60.70;;;;;;4387673;28;656796;-66
2022/06/14 14:50:06;;;;;;;2.90;1.20;;;19.80;57.50;;;;;;4387547;28;656981;-66